Sedov — UELO — position and weather

sailwx.info

Track history (hours):
 
Tides and Currents Weather Stations Pressure Air Temp Water Temp Dewpoint Dewpoint Depression Visibility Wind Speed Wind Dir Waves Ship Positions

Sedov (Russia)

Last reported at 2018-Aug-14 04:45 UTC. Time now 2018-Aug-14 07:05 UTC.
Position N 54°41' E 015°26'.

Length 118 m; draft 6.4 m.

Type: Sailing vessel. MMSI: 273510000.

Date/timePositionNaut miles runAvg speedWind from/ knotsBaromVisibWave heightAir tempDewpointWater temp
2018-Aug-14 04:45N 54°41' E 015°26'3 8.5
2018-Aug-14 04:26N 54°40' E 015°22'4 8.4
2018-Aug-14 03:58N 54°40' E 015°15'4 8.4
2018-Aug-14 03:30N 54°39' E 015°09'4 8.4
2018-Aug-14 03:00N 54°38' E 015°01'4 8.5
2018-Aug-14 02:30N 54°38' E 014°54'4 8.5
2018-Aug-14 02:00N 54°37' E 014°47'4 8.3
2018-Aug-14 01:28N 54°37' E 014°39'4 8.1
2018-Aug-14 01:00N 54°36' E 014°33'4 7.9
2018-Aug-14 00:28N 54°35' E 014°26'4 6.9
2018-Aug-13 23:53N 54°36' E 014°19'2 6.4
2018-Aug-13 23:30N 54°37' E 014°15'3 6.3
2018-Aug-13 23:00N 54°38' E 014°10'3 6.1
2018-Aug-13 22:30N 54°39' E 014°05'3 5.6
2018-Aug-13 22:00N 54°40' E 014°00'3 5.4
2018-Aug-13 21:30N 54°41' E 013°56'3 5.3
2018-Aug-13 21:00N 54°41' E 013°51'2 4.9
2018-Aug-13 20:30N 54°42' E 013°47'3 5.6
2018-Aug-13 20:00N 54°43' E 013°43'3 5.7
2018-Aug-13 19:30N 54°44' E 013°38'3 5.6
2018-Aug-13 19:00N 54°45' E 013°33'3 5.7
2018-Aug-13 18:30N 54°45' E 013°29'3 5.5
2018-Aug-13 18:00N 54°44' E 013°24'3 5.0
2018-Aug-13 17:30N 54°44' E 013°19'3 5.2
2018-Aug-13 17:00N 54°44' E 013°15'3 5.3
2018-Aug-13 16:30N 54°43' E 013°11'3 5.5
2018-Aug-13 16:00N 54°43' E 013°06'3 5.7
2018-Aug-13 15:30N 54°42' E 013°01'3 6.0
2018-Aug-13 15:00N 54°42' E 012°56'3 6.6
2018-Aug-13 14:30N 54°42' E 012°50'3 6.4
2018-Aug-13 14:00N 54°41' E 012°45'3 6.7
2018-Aug-13 13:30N 54°39' E 012°40'3 6.6
2018-Aug-13 13:00N 54°37' E 012°35'4 7.4
2018-Aug-13 12:30N 54°35' E 012°31'4 7.3
2018-Aug-13 12:00N 54°32' E 012°27'4 7.7
2018-Aug-13 11:29N 54°29' E 012°22'4 7.9
2018-Aug-13 11:00N 54°26' E 012°18'4 7.7
2018-Aug-13 10:30N 54°23' E 012°13'4 7.7
2018-Aug-13 10:00N 54°20' E 012°09'4 7.8
2018-Aug-13 09:30N 54°17' E 012°06'4 7.7
2018-Aug-13 09:00N 54°13' E 012°05'2 4.8
2018-Aug-13 08:30N 54°11' E 012°06'0 0.0
2018-Aug-13 07:55N 54°11' E 012°06'0 0.0
2018-Aug-13 07:25N 54°11' E 012°06'0 0.0
2018-Aug-13 06:58N 54°11' E 012°06'0 0.0
2018-Aug-13 06:28N 54°11' E 012°06'0 0.0
2018-Aug-13 05:58N 54°11' E 012°06'0 0.0
2018-Aug-13 05:28N 54°11' E 012°06'0 0.0
2018-Aug-13 04:46N 54°11' E 012°06'0 0.0
2018-Aug-13 04:28N 54°11' E 012°06'0 0.0
2018-Aug-13 03:58N 54°11' E 012°06'0 0.0
2018-Aug-13 03:28N 54°11' E 012°06'0 0.0
2018-Aug-13 02:58N 54°11' E 012°06'0 0.0
2018-Aug-13 01:19N 54°11' E 012°06'0 0.0
2018-Aug-13 00:10N 54°11' E 012°06'0 0.0
2018-Aug-12 23:55N 54°11' E 012°06'0 0.0
2018-Aug-12 19:58N 54°11' E 012°06'0 0.0
2018-Aug-12 19:25N 54°11' E 012°06'0 0.0
2018-Aug-12 18:49N 54°11' E 012°06'0 0.0
2018-Aug-12 18:10N 54°11' E 012°06'0 0.0
2018-Aug-12 17:25N 54°11' E 012°06'0 0.0
2018-Aug-12 16:55N 54°11' E 012°06'0 0.0
2018-Aug-12 13:58N 54°11' E 012°06'0 0.0
2018-Aug-12 13:28N 54°11' E 012°06'0 0.0
2018-Aug-12 12:55N 54°11' E 012°06'0 0.0
2018-Aug-12 12:28N 54°11' E 012°06'0 0.0
2018-Aug-12 11:58N 54°11' E 012°06'0 0.0
2018-Aug-12 10:01N 54°11' E 012°06'0 0.1
2018-Aug-12 09:58N 54°11' E 012°06'0 0.0
2018-Aug-12 09:22N 54°11' E 012°06'0 0.0
2018-Aug-12 08:58N 54°11' E 012°06'0 0.0
2018-Aug-12 08:28N 54°11' E 012°06'0 0.0
2018-Aug-12 07:16N 54°11' E 012°06'0 0.0
2018-Aug-12 05:52N 54°11' E 012°06'0 0.0
2018-Aug-12 05:28N 54°11' E 012°06'0 0.0
2018-Aug-12 04:58N 54°11' E 012°06'0 0.0
2018-Aug-12 04:19N 54°11' E 012°06'0 0.0
2018-Aug-12 03:58N 54°11' E 012°06'0 0.0
2018-Aug-12 03:22N 54°11' E 012°06'0 0.0
2018-Aug-12 01:58N 54°11' E 012°06'0 0.0
2018-Aug-12 01:25N 54°11' E 012°06'0 0.0
2018-Aug-12 00:58N 54°11' E 012°06'0 0.0
2018-Aug-12 00:25N 54°11' E 012°06'0 0.0
2018-Aug-11 23:58N 54°11' E 012°06'0 0.0
2018-Aug-11 23:28N 54°11' E 012°06'0 0.0
2018-Aug-11 22:25N 54°11' E 012°06'0 0.0
2018-Aug-11 21:58N 54°11' E 012°06'0 0.0
2018-Aug-11 21:25N 54°11' E 012°06'0 0.0
2018-Aug-11 19:43N 54°11' E 012°06'0 0.0
2018-Aug-11 19:28N 54°11' E 012°06'0 0.0
2018-Aug-11 17:43N 54°11' E 012°06'0 0.0
2018-Aug-11 17:13N 54°11' E 012°06'0 0.0
2018-Aug-11 16:49N 54°11' E 012°06'0 0.0
2018-Aug-11 16:30N 54°11' E 012°06'0 0.0
2018-Aug-11 15:56N 54°11' E 012°06'0 0.0
2018-Aug-11 15:25N 54°11' E 012°06'0 0.0
2018-Aug-11 15:00N 54°11' E 012°06'0 0.0
2018-Aug-11 14:29N 54°11' E 012°06'2 5.0
2018-Aug-11 14:00N 54°13' E 012°04'6 5.6
2018-Aug-11 12:57N 54°18' E 012°00'2 4.8
2018-Aug-11 12:29N 54°21' E 011°60'2 4.5
2018-Aug-11 12:00N 54°23' E 011°58'4 2.4
2018-Aug-11 10:30N 54°20' E 012°02'2 3.9
2018-Aug-11 10:00N 54°18' E 012°04'4 4.9
2018-Aug-11 09:12N 54°14' E 012°04'1 4.8
2018-Aug-11 08:59N 54°13' E 012°05'3 4.6
2018-Aug-11 08:25N 54°11' E 012°06'0 0.0
2018-Aug-11 07:58N 54°11' E 012°06'0 0.0
2018-Aug-11 06:58N 54°11' E 012°06'0 0.0
2018-Aug-11 06:13N 54°11' E 012°06'0 0.0
2018-Aug-11 05:58N 54°11' E 012°06'0 0.0
2018-Aug-11 04:16N 54°11' E 012°06'0 0.0
2018-Aug-11 03:58N 54°11' E 012°06'0 0.0
2018-Aug-11 03:28N 54°11' E 012°06'0 0.0
2018-Aug-11 02:58N 54°11' E 012°06'0 0.0
2018-Aug-11 01:43N 54°11' E 012°06'0 0.0
2018-Aug-11 01:28N 54°11' E 012°06'0 0.0
2018-Aug-10 23:37N 54°11' E 012°06'0 0.0
2018-Aug-10 23:13N 54°11' E 012°06'0 0.0
2018-Aug-10 22:58N 54°11' E 012°06'0 0.0
2018-Aug-10 22:22N 54°11' E 012°06'0 0.0
2018-Aug-10 21:04N 54°11' E 012°06'0 0.0
2018-Aug-10 20:58N 54°11' E 012°06'0 0.0
2018-Aug-10 19:37N 54°11' E 012°06'0 0.0
2018-Aug-10 19:28N 54°11' E 012°06'0 0.0
2018-Aug-10 15:25N 54°11' E 012°06'0 0.0
2018-Aug-10 14:58N 54°11' E 012°06'0 0.1
2018-Aug-10 13:15N 54°11' E 012°06'0 0.7
2018-Aug-10 13:00N 54°10' E 012°06'2 4.5
2018-Aug-10 12:30N 54°13' E 012°04'2 4.1
2018-Aug-10 12:00N 54°14' E 012°03'4 7.4
2018-Aug-10 11:29N 54°16' E 011°57'2 4.0
2018-Aug-10 10:59N 54°15' E 011°54'1 0.9
2018-Aug-10 09:44N 54°14' E 011°53'1 5.6
2018-Aug-10 09:30N 54°14' E 011°51'3 6.1
2018-Aug-10 09:00N 54°12' E 011°47'1 1.8
2018-Aug-10 08:30N 54°12' E 011°49'3 2.2
2018-Aug-10 07:15N 54°14' E 011°52'0 2.0
2018-Aug-10 07:00N 54°14' E 011°53'1 2.5
2018-Aug-10 06:30N 54°15' E 011°54'1 1.6
2018-Aug-10 06:01N 54°16' E 011°55'1 2.2
2018-Aug-10 05:30N 54°17' E 011°56'1 1.8
2018-Aug-10 05:00N 54°18' E 011°57'1 1.8
2018-Aug-10 04:23N 54°19' E 011°57'1 1.3
2018-Aug-10 04:00N 54°19' E 011°57'1 1.2
2018-Aug-10 03:30N 54°20' E 011°57'0 0.5
2018-Aug-10 03:00N 54°20' E 011°57'7 4.0
2018-Aug-10 01:09N 54°24' E 011°46'1 4.1
2018-Aug-10 01:00N 54°24' E 011°45'2 4.6
2018-Aug-10 00:30N 54°25' E 011°42'3 5.2
2018-Aug-10 00:00N 54°27' E 011°38'3 5.4
2018-Aug-09 23:30N 54°28' E 011°34'3 5.7
2018-Aug-09 23:00N 54°29' E 011°29'3 5.6
2018-Aug-09 22:30N 54°30' E 011°25'3 5.3
2018-Aug-09 22:00N 54°32' E 011°21'2 4.7
2018-Aug-09 21:30N 54°33' E 011°17'2 3.6
2018-Aug-09 21:00N 54°33' E 011°15'1 2.9
2018-Aug-09 20:30N 54°34' E 011°12'2 3.5
2018-Aug-09 20:00N 54°35' E 011°10'3 5.5
2018-Aug-09 19:30N 54°36' E 011°06'2 3.4
2018-Aug-09 19:00N 54°37' E 011°03'2 3.3
2018-Aug-09 18:30N 54°38' E 011°01'2 3.7
2018-Aug-09 18:00N 54°39' E 010°58'2 4.6
2018-Aug-09 17:30N 54°39' E 011°02'2 4.4
2018-Aug-09 17:00N 54°37' E 011°04'3 5.5
2018-Aug-09 16:30N 54°38' E 010°60'3 5.8
2018-Aug-09 16:00N 54°40' E 010°56'3 6.7
2018-Aug-09 15:30N 54°43' E 010°52'4 8.6
2018-Aug-09 15:00N 54°47' E 010°51'5 9.5
2018-Aug-09 14:30N 54°52' E 010°52'5 9.5
2018-Aug-09 14:00N 54°56' E 010°55'5 9.5
2018-Aug-09 13:30N 54°60' E 011°01'5 8.9
2018-Aug-09 13:00N 55°04' E 011°02'4 8.6
2018-Aug-09 12:30N 55°08' E 011°02'4 8.3
2018-Aug-09 12:00N 55°12' E 011°06'4 8.0
2018-Aug-09 11:30N 55°16' E 011°04'95 7.0
2018-Aug-08 21:53N 56°48' E 011°50'3 7.0
2018-Aug-08 21:28N 56°51' E 011°48'3 7.2
2018-Aug-08 21:00N 56°54' E 011°46'4 7.4
2018-Aug-08 20:30N 56°57' E 011°44'4 7.4
2018-Aug-08 20:00N 57°01' E 011°41'4 7.5
2018-Aug-08 19:30N 57°04' E 011°39'3 6.8
2018-Aug-08 19:00N 57°07' E 011°37'4 7.3
2018-Aug-08 18:30N 57°11' E 011°35'4 7.3
2018-Aug-08 18:00N 57°14' E 011°32'4 7.8
2018-Aug-08 17:30N 57°18' E 011°30'4 7.9
2018-Aug-08 17:01N 57°21' E 011°27'4 8.1
2018-Aug-08 16:30N 57°25' E 011°25'4 7.8
2018-Aug-08 16:00N 57°29' E 011°21'4 8.1
2018-Aug-08 15:30N 57°31' E 011°15'4 8.3
2018-Aug-08 15:00N 57°34' E 011°10'4 7.8
2018-Aug-08 14:30N 57°37' E 011°04'4 7.6
2018-Aug-08 14:00N 57°40' E 010°59'4 7.3
2018-Aug-08 13:31N 57°42' E 010°54'4 7.5
2018-Aug-08 13:00N 57°45' E 010°49'4 7.4
2018-Aug-08 12:31N 57°47' E 010°44'4 7.7
2018-Aug-08 11:59N 57°47' E 010°37'4 7.7
2018-Aug-08 11:31N 57°47' E 010°30'4 7.8
2018-Aug-08 11:00N 57°47' E 010°23'4 8.4
2018-Aug-08 10:30N 57°47' E 010°15'4 8.3
2018-Aug-08 10:01N 57°47' E 010°07'4 8.2
2018-Aug-08 09:30N 57°47' E 009°59'6 8.2
2018-Aug-08 08:48N 57°45' E 009°49'23 8.4
2018-Aug-08 06:04N 57°35' E 009°10'0 8.5
2018-Aug-08 06:00N 57°35' E 009°09'4 8.6
2018-Aug-08 05:30N 57°33' E 009°02'5 8.6
2018-Aug-08 04:58N 57°31' E 008°55'4 8.1
2018-Aug-08 04:30N 57°29' E 008°49'4 8.2
2018-Aug-08 04:00N 57°26' E 008°43'5 8.4
2018-Aug-08 03:27N 57°23' E 008°36'6 8.5
2018-Aug-08 02:41N 57°19' E 008°26'2 8.5
2018-Aug-08 02:30N 57°18' E 008°24'4 8.5
2018-Aug-08 02:01N 57°16' E 008°18'5 8.5
2018-Aug-08 01:26N 57°12' E 008°12'4 8.4
2018-Aug-08 01:00N 57°09' E 008°08'141 8.1
2018-Aug-07 07:29N 54°58' E 006°34'14 8.0
2018-Aug-07 05:44N 54°44' E 006°35'37 8.0
2018-Aug-07 01:05N 54°08' E 006°22'6 8.3
2018-Aug-07 00:24N 54°02' E 006°21'10 8.3
2018-Aug-06 23:13N 53°52' E 006°22'2 8.3
2018-Aug-06 23:00N 53°50' E 006°23'5 8.2
2018-Aug-06 22:21N 53°45' E 006°23'3 7.4
2018-Aug-06 21:55N 53°42' E 006°22'3 7.2
2018-Aug-06 21:30N 53°39' E 006°20'3 6.1
2018-Aug-06 21:00N 53°37' E 006°24'5 9.5
2018-Aug-06 20:30N 53°37' E 006°32'510.0
2018-Aug-06 19:59N 53°34' E 006°39'510.5
2018-Aug-06 19:30N 53°31' E 006°46'5 9.8
2018-Aug-06 19:00N 53°28' E 006°52'4 8.6
2018-Aug-06 18:30N 53°25' E 006°57'4 7.7
2018-Aug-06 18:00N 53°21' E 006°59'3 5.9
2018-Aug-06 17:30N 53°19' E 007°03'3 6.9
2018-Aug-06 17:00N 53°20' E 007°09'1 2.6
2018-Aug-06 16:30N 53°20' E 007°11'0 0.6
2018-Aug-06 16:00N 53°20' E 007°12'0 0.0
2018-Aug-06 15:30N 53°20' E 007°12'0 0.0
2018-Aug-06 15:00N 53°20' E 007°12'0 0.0
2018-Aug-06 14:30N 53°20' E 007°12'0 0.0
2018-Aug-06 14:00N 53°20' E 007°12'0 0.0
2018-Aug-06 13:30N 53°20' E 007°12'0 0.0
2018-Aug-06 13:00N 53°20' E 007°12'0 0.0
2018-Aug-06 12:30N 53°20' E 007°12'0 0.0
2018-Aug-06 11:57N 53°20' E 007°12'0 0.0
2018-Aug-06 11:30N 53°20' E 007°12'0 0.0
2018-Aug-06 11:00N 53°20' E 007°12'0 0.0
2018-Aug-06 10:30N 53°20' E 007°12'0 0.0
2018-Aug-06 10:00N 53°20' E 007°12'0 0.0
2018-Aug-06 09:30N 53°20' E 007°12'0 0.0
2018-Aug-06 09:00N 53°20' E 007°12'0 0.0
2018-Aug-06 08:30N 53°20' E 007°12'0 0.0
2018-Aug-06 08:00N 53°20' E 007°12'0 0.0
2018-Aug-06 07:30N 53°20' E 007°12'0 0.0
2018-Aug-06 06:57N 53°20' E 007°12'0 0.0
2018-Aug-06 06:30N 53°20' E 007°12'0 0.0
2018-Aug-06 06:00N 53°20' E 007°12'0 0.0
2018-Aug-06 05:30N 53°20' E 007°12'0 0.0
2018-Aug-06 05:00N 53°20' E 007°12'0 0.0
2018-Aug-06 04:30N 53°20' E 007°12'0 0.1
2018-Aug-06 04:00N 53°20' E 007°12'0 0.0
2018-Aug-06 03:30N 53°20' E 007°12'0 0.0
2018-Aug-06 03:00N 53°20' E 007°12'0 0.0
2018-Aug-06 02:30N 53°20' E 007°12'0 0.0
2018-Aug-06 02:00N 53°20' E 007°12'0 0.0
2018-Aug-06 01:30N 53°20' E 007°12'0 0.0
2018-Aug-06 01:00N 53°20' E 007°12'0 0.0
2018-Aug-06 00:30N 53°20' E 007°12'0 0.0
2018-Aug-06 00:00N 53°20' E 007°12'0 0.0
2018-Aug-05 23:30N 53°20' E 007°12'0 0.0
2018-Aug-05 23:00N 53°20' E 007°12'0 0.0
2018-Aug-05 22:30N 53°20' E 007°12'0 0.0
2018-Aug-05 22:00N 53°20' E 007°12'0 0.0
2018-Aug-05 21:30N 53°20' E 007°12'0 0.0
2018-Aug-05 21:00N 53°20' E 007°12'0 0.0
2018-Aug-05 20:30N 53°20' E 007°12'0 0.0
2018-Aug-05 20:00N 53°20' E 007°12'0 0.0
2018-Aug-05 19:30N 53°20' E 007°12'0 0.0
2018-Aug-05 19:00N 53°20' E 007°12'0 0.0
2018-Aug-05 18:30N 53°20' E 007°12'0 0.0
2018-Aug-05 18:00N 53°20' E 007°12'0 0.0
2018-Aug-05 17:30N 53°20' E 007°12'0 0.0
2018-Aug-05 17:00N 53°20' E 007°12'0 0.0
2018-Aug-05 16:30N 53°20' E 007°12'0 0.0
2018-Aug-05 16:00N 53°20' E 007°12'0 0.0
2018-Aug-05 15:30N 53°20' E 007°12'0 0.0
2018-Aug-05 15:00N 53°20' E 007°12'0 0.0
2018-Aug-05 14:00N 53°20' E 007°12'0 0.0
2018-Aug-05 13:30N 53°20' E 007°12'0 0.0
2018-Aug-05 13:00N 53°20' E 007°12'0 0.0
2018-Aug-05 12:30N 53°20' E 007°12'0 0.0
2018-Aug-05 12:00N 53°20' E 007°12'0 0.0
2018-Aug-05 11:30N 53°20' E 007°12'0 0.0
2018-Aug-05 11:00N 53°20' E 007°12'0 0.0
2018-Aug-05 10:30N 53°20' E 007°12'0 0.0
2018-Aug-05 09:57N 53°20' E 007°12'0 0.0
2018-Aug-05 09:30N 53°20' E 007°12'0 0.0
2018-Aug-05 09:00N 53°20' E 007°12'0 0.0
2018-Aug-05 08:30N 53°20' E 007°12'0 0.0
2018-Aug-05 08:00N 53°20' E 007°12'0 0.0
2018-Aug-05 07:30N 53°20' E 007°12'0 0.0
2018-Aug-05 07:00N 53°20' E 007°12'0 0.0
2018-Aug-05 06:30N 53°20' E 007°12'0 0.0
2018-Aug-05 06:00N 53°20' E 007°12'0 0.0
2018-Aug-05 05:27N 53°20' E 007°12'0 0.0
2018-Aug-05 05:00N 53°20' E 007°12'0 0.1
2018-Aug-05 04:30N 53°20' E 007°12'0 0.1
2018-Aug-05 04:00N 53°20' E 007°12'0 0.0
2018-Aug-05 03:30N 53°20' E 007°12'0 0.0
2018-Aug-05 03:00N 53°20' E 007°12'0 0.0
2018-Aug-05 02:30N 53°20' E 007°12'0 0.0
2018-Aug-05 01:57N 53°20' E 007°12'0 0.0
2018-Aug-05 01:30N 53°20' E 007°12'0 0.0
2018-Aug-05 00:57N 53°20' E 007°12'0 0.0
2018-Aug-05 00:30N 53°20' E 007°12'0 0.0
2018-Aug-05 00:00N 53°20' E 007°12'0 0.0
2018-Aug-04 23:30N 53°20' E 007°12'0 0.0
2018-Aug-04 23:00N 53°20' E 007°12'0 0.0
2018-Aug-04 22:30N 53°20' E 007°12'0 0.0
2018-Aug-04 22:00N 53°20' E 007°12'0 0.0
2018-Aug-04 21:30N 53°20' E 007°12'0 0.0
2018-Aug-04 21:00N 53°20' E 007°12'0 0.0
2018-Aug-04 20:30N 53°20' E 007°12'0 0.0
2018-Aug-04 20:00N 53°20' E 007°12'0 0.0
2018-Aug-04 19:30N 53°20' E 007°12'0 0.0
2018-Aug-04 19:00N 53°20' E 007°12'0 0.0
2018-Aug-04 18:30N 53°20' E 007°12'0 0.0
2018-Aug-04 17:57N 53°20' E 007°12'0 0.0
2018-Aug-04 17:30N 53°20' E 007°12'0 0.0
2018-Aug-04 17:00N 53°20' E 007°12'0 0.0
2018-Aug-04 16:30N 53°20' E 007°12'0 0.0
2018-Aug-04 16:00N 53°20' E 007°12'0 0.0
2018-Aug-04 15:30N 53°20' E 007°12'0 0.0
2018-Aug-04 15:00N 53°20' E 007°12'0 0.0
2018-Aug-04 14:30N 53°20' E 007°12'0 0.0
2018-Aug-04 14:00N 53°20' E 007°12'0 0.0
2018-Aug-04 13:30N 53°20' E 007°12'0 0.0
2018-Aug-04 13:00N 53°20' E 007°12'0 0.0
2018-Aug-04 12:30N 53°20' E 007°12'0 0.0
2018-Aug-04 12:00N 53°20' E 007°12'0 0.0
2018-Aug-04 11:30N 53°20' E 007°12'0 0.0
2018-Aug-04 10:57N 53°20' E 007°12'0 0.0
2018-Aug-04 10:30N 53°20' E 007°12'0 0.0
2018-Aug-04 10:00N 53°20' E 007°12'0 0.0
2018-Aug-04 09:30N 53°20' E 007°12'0 0.0
2018-Aug-04 09:00N 53°20' E 007°12'0 0.0
2018-Aug-04 08:30N 53°20' E 007°12'0 0.0
2018-Aug-04 08:00N 53°20' E 007°12'0 0.0
2018-Aug-04 07:30N 53°20' E 007°12'0 0.0
2018-Aug-04 06:57N 53°20' E 007°12'0 0.0
2018-Aug-04 06:30N 53°20' E 007°12'0 0.0
2018-Aug-04 06:00N 53°20' E 007°12'0 0.0
2018-Aug-04 05:30N 53°20' E 007°12'0 0.0
2018-Aug-04 05:00N 53°20' E 007°12'  
Track history (hours):
 
Tides and Currents Weather Stations Pressure Air Temp Water Temp Dewpoint Dewpoint Depression Visibility Wind Speed Wind Dir Waves Ship Positions

Sedov (Russia)

Last reported at 2018-Aug-14 04:45 UTC. Time now 2018-Aug-14 07:05 UTC.
Position N 54°41' E 015°26'.

Length 118 m; draft 6.4 m.

Type: Sailing vessel. MMSI: 273510000.

Date/timePositionNaut miles runAvg speedWind from/ knotsBaromVisibWave heightAir tempDewpointWater temp
2018-Aug-14 04:45N 54°41' E 015°26'3 8.5
2018-Aug-14 04:26N 54°40' E 015°22'4 8.4
2018-Aug-14 03:58N 54°40' E 015°15'4 8.4
2018-Aug-14 03:30N 54°39' E 015°09'4 8.4
2018-Aug-14 03:00N 54°38' E 015°01'4 8.5
2018-Aug-14 02:30N 54°38' E 014°54'4 8.5
2018-Aug-14 02:00N 54°37' E 014°47'4 8.3
2018-Aug-14 01:28N 54°37' E 014°39'4 8.1
2018-Aug-14 01:00N 54°36' E 014°33'4 7.9
2018-Aug-14 00:28N 54°35' E 014°26'4 6.9
2018-Aug-13 23:53N 54°36' E 014°19'2 6.4
2018-Aug-13 23:30N 54°37' E 014°15'3 6.3
2018-Aug-13 23:00N 54°38' E 014°10'3 6.1
2018-Aug-13 22:30N 54°39' E 014°05'3 5.6
2018-Aug-13 22:00N 54°40' E 014°00'3 5.4
2018-Aug-13 21:30N 54°41' E 013°56'3 5.3
2018-Aug-13 21:00N 54°41' E 013°51'2 4.9
2018-Aug-13 20:30N 54°42' E 013°47'3 5.6
2018-Aug-13 20:00N 54°43' E 013°43'3 5.7
2018-Aug-13 19:30N 54°44' E 013°38'3 5.6
2018-Aug-13 19:00N 54°45' E 013°33'3 5.7
2018-Aug-13 18:30N 54°45' E 013°29'3 5.5
2018-Aug-13 18:00N 54°44' E 013°24'3 5.0
2018-Aug-13 17:30N 54°44' E 013°19'3 5.2
2018-Aug-13 17:00N 54°44' E 013°15'3 5.3
2018-Aug-13 16:30N 54°43' E 013°11'3 5.5
2018-Aug-13 16:00N 54°43' E 013°06'3 5.7
2018-Aug-13 15:30N 54°42' E 013°01'3 6.0
2018-Aug-13 15:00N 54°42' E 012°56'3 6.6
2018-Aug-13 14:30N 54°42' E 012°50'3 6.4
2018-Aug-13 14:00N 54°41' E 012°45'3 6.7
2018-Aug-13 13:30N 54°39' E 012°40'3 6.6
2018-Aug-13 13:00N 54°37' E 012°35'4 7.4
2018-Aug-13 12:30N 54°35' E 012°31'4 7.3
2018-Aug-13 12:00N 54°32' E 012°27'4 7.7
2018-Aug-13 11:29N 54°29' E 012°22'4 7.9
2018-Aug-13 11:00N 54°26' E 012°18'4 7.7
2018-Aug-13 10:30N 54°23' E 012°13'4 7.7
2018-Aug-13 10:00N 54°20' E 012°09'4 7.8
2018-Aug-13 09:30N 54°17' E 012°06'4 7.7
2018-Aug-13 09:00N 54°13' E 012°05'2 4.8
2018-Aug-13 08:30N 54°11' E 012°06'0 0.0
2018-Aug-13 07:55N 54°11' E 012°06'0 0.0
2018-Aug-13 07:25N 54°11' E 012°06'0 0.0
2018-Aug-13 06:58N 54°11' E 012°06'0 0.0
2018-Aug-13 06:28N 54°11' E 012°06'0 0.0
2018-Aug-13 05:58N 54°11' E 012°06'0 0.0
2018-Aug-13 05:28N 54°11' E 012°06'0 0.0
2018-Aug-13 04:46N 54°11' E 012°06'0 0.0
2018-Aug-13 04:28N 54°11' E 012°06'0 0.0
2018-Aug-13 03:58N 54°11' E 012°06'0 0.0
2018-Aug-13 03:28N 54°11' E 012°06'0 0.0
2018-Aug-13 02:58N 54°11' E 012°06'0 0.0
2018-Aug-13 01:19N 54°11' E 012°06'0 0.0
2018-Aug-13 00:10N 54°11' E 012°06'0 0.0
2018-Aug-12 23:55N 54°11' E 012°06'0 0.0
2018-Aug-12 19:58N 54°11' E 012°06'0 0.0
2018-Aug-12 19:25N 54°11' E 012°06'0 0.0
2018-Aug-12 18:49N 54°11' E 012°06'0 0.0
2018-Aug-12 18:10N 54°11' E 012°06'0 0.0
2018-Aug-12 17:25N 54°11' E 012°06'0 0.0
2018-Aug-12 16:55N 54°11' E 012°06'0 0.0
2018-Aug-12 13:58N 54°11' E 012°06'0 0.0
2018-Aug-12 13:28N 54°11' E 012°06'0 0.0
2018-Aug-12 12:55N 54°11' E 012°06'0 0.0
2018-Aug-12 12:28N 54°11' E 012°06'0 0.0
2018-Aug-12 11:58N 54°11' E 012°06'0 0.0
2018-Aug-12 10:01N 54°11' E 012°06'0 0.1
2018-Aug-12 09:58N 54°11' E 012°06'0 0.0
2018-Aug-12 09:22N 54°11' E 012°06'0 0.0
2018-Aug-12 08:58N 54°11' E 012°06'0 0.0
2018-Aug-12 08:28N 54°11' E 012°06'0 0.0
2018-Aug-12 07:16N 54°11' E 012°06'0 0.0
2018-Aug-12 05:52N 54°11' E 012°06'0 0.0
2018-Aug-12 05:28N 54°11' E 012°06'0 0.0
2018-Aug-12 04:58N 54°11' E 012°06'0 0.0
2018-Aug-12 04:19N 54°11' E 012°06'0 0.0
2018-Aug-12 03:58N 54°11' E 012°06'0 0.0
2018-Aug-12 03:22N 54°11' E 012°06'0 0.0
2018-Aug-12 01:58N 54°11' E 012°06'0 0.0
2018-Aug-12 01:25N 54°11' E 012°06'0 0.0
2018-Aug-12 00:58N 54°11' E 012°06'0 0.0
2018-Aug-12 00:25N 54°11' E 012°06'0 0.0
2018-Aug-11 23:58N 54°11' E 012°06'0 0.0
2018-Aug-11 23:28N 54°11' E 012°06'0 0.0
2018-Aug-11 22:25N 54°11' E 012°06'0 0.0
2018-Aug-11 21:58N 54°11' E 012°06'0 0.0
2018-Aug-11 21:25N 54°11' E 012°06'0 0.0
2018-Aug-11 19:43N 54°11' E 012°06'0 0.0
2018-Aug-11 19:28N 54°11' E 012°06'0 0.0
2018-Aug-11 17:43N 54°11' E 012°06'0 0.0
2018-Aug-11 17:13N 54°11' E 012°06'0 0.0
2018-Aug-11 16:49N 54°11' E 012°06'0 0.0
2018-Aug-11 16:30N 54°11' E 012°06'0 0.0
2018-Aug-11 15:56N 54°11' E 012°06'0 0.0
2018-Aug-11 15:25N 54°11' E 012°06'0 0.0
2018-Aug-11 15:00N 54°11' E 012°06'0 0.0
2018-Aug-11 14:29N 54°11' E 012°06'2 5.0
2018-Aug-11 14:00N 54°13' E 012°04'6 5.6
2018-Aug-11 12:57N 54°18' E 012°00'2 4.8
2018-Aug-11 12:29N 54°21' E 011°60'2 4.5
2018-Aug-11 12:00N 54°23' E 011°58'4 2.4
2018-Aug-11 10:30N 54°20' E 012°02'2 3.9
2018-Aug-11 10:00N 54°18' E 012°04'4 4.9
2018-Aug-11 09:12N 54°14' E 012°04'1 4.8
2018-Aug-11 08:59N 54°13' E 012°05'3 4.6
2018-Aug-11 08:25N 54°11' E 012°06'0 0.0
2018-Aug-11 07:58N 54°11' E 012°06'0 0.0
2018-Aug-11 06:58N 54°11' E 012°06'0 0.0
2018-Aug-11 06:13N 54°11' E 012°06'0 0.0
2018-Aug-11 05:58N 54°11' E 012°06'0 0.0
2018-Aug-11 04:16N 54°11' E 012°06'0 0.0
2018-Aug-11 03:58N 54°11' E 012°06'0 0.0
2018-Aug-11 03:28N 54°11' E 012°06'0 0.0
2018-Aug-11 02:58N 54°11' E 012°06'0 0.0
2018-Aug-11 01:43N 54°11' E 012°06'0 0.0
2018-Aug-11 01:28N 54°11' E 012°06'0 0.0
2018-Aug-10 23:37N 54°11' E 012°06'0 0.0
2018-Aug-10 23:13N 54°11' E 012°06'0 0.0
2018-Aug-10 22:58N 54°11' E 012°06'0 0.0
2018-Aug-10 22:22N 54°11' E 012°06'0 0.0
2018-Aug-10 21:04N 54°11' E 012°06'0 0.0
2018-Aug-10 20:58N 54°11' E 012°06'0 0.0
2018-Aug-10 19:37N 54°11' E 012°06'0 0.0
2018-Aug-10 19:28N 54°11' E 012°06'0 0.0
2018-Aug-10 15:25N 54°11' E 012°06'0 0.0
2018-Aug-10 14:58N 54°11' E 012°06'0 0.1
2018-Aug-10 13:15N 54°11' E 012°06'0 0.7
2018-Aug-10 13:00N 54°10' E 012°06'2 4.5
2018-Aug-10 12:30N 54°13' E 012°04'2 4.1
2018-Aug-10 12:00N 54°14' E 012°03'4 7.4
2018-Aug-10 11:29N 54°16' E 011°57'2 4.0
2018-Aug-10 10:59N 54°15' E 011°54'1 0.9
2018-Aug-10 09:44N 54°14' E 011°53'1 5.6
2018-Aug-10 09:30N 54°14' E 011°51'3 6.1
2018-Aug-10 09:00N 54°12' E 011°47'1 1.8
2018-Aug-10 08:30N 54°12' E 011°49'3 2.2
2018-Aug-10 07:15N 54°14' E 011°52'0 2.0
2018-Aug-10 07:00N 54°14' E 011°53'1 2.5
2018-Aug-10 06:30N 54°15' E 011°54'1 1.6
2018-Aug-10 06:01N 54°16' E 011°55'1 2.2
2018-Aug-10 05:30N 54°17' E 011°56'1 1.8
2018-Aug-10 05:00N 54°18' E 011°57'1 1.8
2018-Aug-10 04:23N 54°19' E 011°57'1 1.3
2018-Aug-10 04:00N 54°19' E 011°57'1 1.2
2018-Aug-10 03:30N 54°20' E 011°57'0 0.5
2018-Aug-10 03:00N 54°20' E 011°57'7 4.0
2018-Aug-10 01:09N 54°24' E 011°46'1 4.1
2018-Aug-10 01:00N 54°24' E 011°45'2 4.6
2018-Aug-10 00:30N 54°25' E 011°42'3 5.2
2018-Aug-10 00:00N 54°27' E 011°38'3 5.4
2018-Aug-09 23:30N 54°28' E 011°34'3 5.7
2018-Aug-09 23:00N 54°29' E 011°29'3 5.6
2018-Aug-09 22:30N 54°30' E 011°25'3 5.3
2018-Aug-09 22:00N 54°32' E 011°21'2 4.7
2018-Aug-09 21:30N 54°33' E 011°17'2 3.6
2018-Aug-09 21:00N 54°33' E 011°15'1 2.9
2018-Aug-09 20:30N 54°34' E 011°12'2 3.5
2018-Aug-09 20:00N 54°35' E 011°10'3 5.5
2018-Aug-09 19:30N 54°36' E 011°06'2 3.4
2018-Aug-09 19:00N 54°37' E 011°03'2 3.3
2018-Aug-09 18:30N 54°38' E 011°01'2 3.7
2018-Aug-09 18:00N 54°39' E 010°58'2 4.6
2018-Aug-09 17:30N 54°39' E 011°02'2 4.4
2018-Aug-09 17:00N 54°37' E 011°04'3 5.5
2018-Aug-09 16:30N 54°38' E 010°60'3 5.8
2018-Aug-09 16:00N 54°40' E 010°56'3 6.7
2018-Aug-09 15:30N 54°43' E 010°52'4 8.6
2018-Aug-09 15:00N 54°47' E 010°51'5 9.5
2018-Aug-09 14:30N 54°52' E 010°52'5 9.5
2018-Aug-09 14:00N 54°56' E 010°55'5 9.5
2018-Aug-09 13:30N 54°60' E 011°01'5 8.9
2018-Aug-09 13:00N 55°04' E 011°02'4 8.6
2018-Aug-09 12:30N 55°08' E 011°02'4 8.3
2018-Aug-09 12:00N 55°12' E 011°06'4 8.0
2018-Aug-09 11:30N 55°16' E 011°04'95 7.0
2018-Aug-08 21:53N 56°48' E 011°50'3 7.0
2018-Aug-08 21:28N 56°51' E 011°48'3 7.2
2018-Aug-08 21:00N 56°54' E 011°46'4 7.4
2018-Aug-08 20:30N 56°57' E 011°44'4 7.4
2018-Aug-08 20:00N 57°01' E 011°41'4 7.5
2018-Aug-08 19:30N 57°04' E 011°39'3 6.8
2018-Aug-08 19:00N 57°07' E 011°37'4 7.3
2018-Aug-08 18:30N 57°11' E 011°35'4 7.3
2018-Aug-08 18:00N 57°14' E 011°32'4 7.8
2018-Aug-08 17:30N 57°18' E 011°30'4 7.9
2018-Aug-08 17:01N 57°21' E 011°27'4 8.1
2018-Aug-08 16:30N 57°25' E 011°25'4 7.8
2018-Aug-08 16:00N 57°29' E 011°21'4 8.1
2018-Aug-08 15:30N 57°31' E 011°15'4 8.3
2018-Aug-08 15:00N 57°34' E 011°10'4 7.8
2018-Aug-08 14:30N 57°37' E 011°04'4 7.6
2018-Aug-08 14:00N 57°40' E 010°59'4 7.3
2018-Aug-08 13:31N 57°42' E 010°54'4 7.5
2018-Aug-08 13:00N 57°45' E 010°49'4 7.4
2018-Aug-08 12:31N 57°47' E 010°44'4 7.7
2018-Aug-08 11:59N 57°47' E 010°37'4 7.7
2018-Aug-08 11:31N 57°47' E 010°30'4 7.8
2018-Aug-08 11:00N 57°47' E 010°23'4 8.4
2018-Aug-08 10:30N 57°47' E 010°15'4 8.3
2018-Aug-08 10:01N 57°47' E 010°07'4 8.2
2018-Aug-08 09:30N 57°47' E 009°59'6 8.2
2018-Aug-08 08:48N 57°45' E 009°49'23 8.4
2018-Aug-08 06:04N 57°35' E 009°10'0 8.5
2018-Aug-08 06:00N 57°35' E 009°09'4 8.6
2018-Aug-08 05:30N 57°33' E 009°02'5 8.6
2018-Aug-08 04:58N 57°31' E 008°55'4 8.1
2018-Aug-08 04:30N 57°29' E 008°49'4 8.2
2018-Aug-08 04:00N 57°26' E 008°43'5 8.4
2018-Aug-08 03:27N 57°23' E 008°36'6 8.5
2018-Aug-08 02:41N 57°19' E 008°26'2 8.5
2018-Aug-08 02:30N 57°18' E 008°24'4 8.5
2018-Aug-08 02:01N 57°16' E 008°18'5 8.5
2018-Aug-08 01:26N 57°12' E 008°12'4 8.4
2018-Aug-08 01:00N 57°09' E 008°08'141 8.1
2018-Aug-07 07:29N 54°58' E 006°34'14 8.0
2018-Aug-07 05:44N 54°44' E 006°35'37 8.0
2018-Aug-07 01:05N 54°08' E 006°22'6 8.3
2018-Aug-07 00:24N 54°02' E 006°21'10 8.3
2018-Aug-06 23:13N 53°52' E 006°22'2 8.3
2018-Aug-06 23:00N 53°50' E 006°23'5 8.2
2018-Aug-06 22:21N 53°45' E 006°23'3 7.4
2018-Aug-06 21:55N 53°42' E 006°22'3 7.2
2018-Aug-06 21:30N 53°39' E 006°20'3 6.1
2018-Aug-06 21:00N 53°37' E 006°24'5 9.5
2018-Aug-06 20:30N 53°37' E 006°32'510.0
2018-Aug-06 19:59N 53°34' E 006°39'510.5
2018-Aug-06 19:30N 53°31' E 006°46'5 9.8
2018-Aug-06 19:00N 53°28' E 006°52'4 8.6
2018-Aug-06 18:30N 53°25' E 006°57'4 7.7
2018-Aug-06 18:00N 53°21' E 006°59'3 5.9
2018-Aug-06 17:30N 53°19' E 007°03'3 6.9
2018-Aug-06 17:00N 53°20' E 007°09'1 2.6
2018-Aug-06 16:30N 53°20' E 007°11'0 0.6
2018-Aug-06 16:00N 53°20' E 007°12'0 0.0
2018-Aug-06 15:30N 53°20' E 007°12'0 0.0
2018-Aug-06 15:00N 53°20' E 007°12'0 0.0
2018-Aug-06 14:30N 53°20' E 007°12'0 0.0
2018-Aug-06 14:00N 53°20' E 007°12'0 0.0
2018-Aug-06 13:30N 53°20' E 007°12'0 0.0
2018-Aug-06 13:00N 53°20' E 007°12'0 0.0
2018-Aug-06 12:30N 53°20' E 007°12'0 0.0
2018-Aug-06 11:57N 53°20' E 007°12'0 0.0
2018-Aug-06 11:30N 53°20' E 007°12'0 0.0
2018-Aug-06 11:00N 53°20' E 007°12'0 0.0
2018-Aug-06 10:30N 53°20' E 007°12'0 0.0
2018-Aug-06 10:00N 53°20' E 007°12'0 0.0
2018-Aug-06 09:30N 53°20' E 007°12'0 0.0
2018-Aug-06 09:00N 53°20' E 007°12'0 0.0
2018-Aug-06 08:30N 53°20' E 007°12'0 0.0
2018-Aug-06 08:00N 53°20' E 007°12'0 0.0
2018-Aug-06 07:30N 53°20' E 007°12'0 0.0
2018-Aug-06 06:57N 53°20' E 007°12'0 0.0
2018-Aug-06 06:30N 53°20' E 007°12'0 0.0
2018-Aug-06 06:00N 53°20' E 007°12'0 0.0
2018-Aug-06 05:30N 53°20' E 007°12'0 0.0
2018-Aug-06 05:00N 53°20' E 007°12'0 0.0
2018-Aug-06 04:30N 53°20' E 007°12'0 0.1
2018-Aug-06 04:00N 53°20' E 007°12'0 0.0
2018-Aug-06 03:30N 53°20' E 007°12'0 0.0
2018-Aug-06 03:00N 53°20' E 007°12'0 0.0
2018-Aug-06 02:30N 53°20' E 007°12'0 0.0
2018-Aug-06 02:00N 53°20' E 007°12'0 0.0
2018-Aug-06 01:30N 53°20' E 007°12'0 0.0
2018-Aug-06 01:00N 53°20' E 007°12'0 0.0
2018-Aug-06 00:30N 53°20' E 007°12'0 0.0
2018-Aug-06 00:00N 53°20' E 007°12'0 0.0
2018-Aug-05 23:30N 53°20' E 007°12'0 0.0
2018-Aug-05 23:00N 53°20' E 007°12'0 0.0
2018-Aug-05 22:30N 53°20' E 007°12'0 0.0
2018-Aug-05 22:00N 53°20' E 007°12'0 0.0
2018-Aug-05 21:30N 53°20' E 007°12'0 0.0
2018-Aug-05 21:00N 53°20' E 007°12'0 0.0
2018-Aug-05 20:30N 53°20' E 007°12'0 0.0
2018-Aug-05 20:00N 53°20' E 007°12'0 0.0
2018-Aug-05 19:30N 53°20' E 007°12'0 0.0
2018-Aug-05 19:00N 53°20' E 007°12'0 0.0
2018-Aug-05 18:30N 53°20' E 007°12'0 0.0
2018-Aug-05 18:00N 53°20' E 007°12'0 0.0
2018-Aug-05 17:30N 53°20' E 007°12'0 0.0
2018-Aug-05 17:00N 53°20' E 007°12'0 0.0
2018-Aug-05 16:30N 53°20' E 007°12'0 0.0
2018-Aug-05 16:00N 53°20' E 007°12'0 0.0
2018-Aug-05 15:30N 53°20' E 007°12'0 0.0
2018-Aug-05 15:00N 53°20' E 007°12'0 0.0
2018-Aug-05 14:00N 53°20' E 007°12'0 0.0
2018-Aug-05 13:30N 53°20' E 007°12'0 0.0
2018-Aug-05 13:00N 53°20' E 007°12'0 0.0
2018-Aug-05 12:30N 53°20' E 007°12'0 0.0
2018-Aug-05 12:00N 53°20' E 007°12'0 0.0
2018-Aug-05 11:30N 53°20' E 007°12'0 0.0
2018-Aug-05 11:00N 53°20' E 007°12'0 0.0
2018-Aug-05 10:30N 53°20' E 007°12'0 0.0
2018-Aug-05 09:57N 53°20' E 007°12'0 0.0
2018-Aug-05 09:30N 53°20' E 007°12'0 0.0
2018-Aug-05 09:00N 53°20' E 007°12'0 0.0
2018-Aug-05 08:30N 53°20' E 007°12'0 0.0
2018-Aug-05 08:00N 53°20' E 007°12'0 0.0
2018-Aug-05 07:30N 53°20' E 007°12'0 0.0
2018-Aug-05 07:00N 53°20' E 007°12'0 0.0
2018-Aug-05 06:30N 53°20' E 007°12'0 0.0
2018-Aug-05 06:00N 53°20' E 007°12'0 0.0
2018-Aug-05 05:27N 53°20' E 007°12'0 0.0
2018-Aug-05 05:00N 53°20' E 007°12'0 0.1
2018-Aug-05 04:30N 53°20' E 007°12'0 0.1
2018-Aug-05 04:00N 53°20' E 007°12'0 0.0
2018-Aug-05 03:30N 53°20' E 007°12'0 0.0
2018-Aug-05 03:00N 53°20' E 007°12'0 0.0
2018-Aug-05 02:30N 53°20' E 007°12'0 0.0
2018-Aug-05 01:57N 53°20' E 007°12'0 0.0
2018-Aug-05 01:30N 53°20' E 007°12'0 0.0
2018-Aug-05 00:57N 53°20' E 007°12'0 0.0
2018-Aug-05 00:30N 53°20' E 007°12'0 0.0
2018-Aug-05 00:00N 53°20' E 007°12'0 0.0
2018-Aug-04 23:30N 53°20' E 007°12'0 0.0
2018-Aug-04 23:00N 53°20' E 007°12'0 0.0
2018-Aug-04 22:30N 53°20' E 007°12'0 0.0
2018-Aug-04 22:00N 53°20' E 007°12'0 0.0
2018-Aug-04 21:30N 53°20' E 007°12'0 0.0
2018-Aug-04 21:00N 53°20' E 007°12'0 0.0
2018-Aug-04 20:30N 53°20' E 007°12'0 0.0
2018-Aug-04 20:00N 53°20' E 007°12'0 0.0
2018-Aug-04 19:30N 53°20' E 007°12'0 0.0
2018-Aug-04 19:00N 53°20' E 007°12'0 0.0
2018-Aug-04 18:30N 53°20' E 007°12'0 0.0
2018-Aug-04 17:57N 53°20' E 007°12'0 0.0
2018-Aug-04 17:30N 53°20' E 007°12'0 0.0
2018-Aug-04 17:00N 53°20' E 007°12'0 0.0
2018-Aug-04 16:30N 53°20' E 007°12'0 0.0
2018-Aug-04 16:00N 53°20' E 007°12'0 0.0
2018-Aug-04 15:30N 53°20' E 007°12'0 0.0
2018-Aug-04 15:00N 53°20' E 007°12'0 0.0
2018-Aug-04 14:30N 53°20' E 007°12'0 0.0
2018-Aug-04 14:00N 53°20' E 007°12'0 0.0
2018-Aug-04 13:30N 53°20' E 007°12'0 0.0
2018-Aug-04 13:00N 53°20' E 007°12'0 0.0
2018-Aug-04 12:30N 53°20' E 007°12'0 0.0
2018-Aug-04 12:00N 53°20' E 007°12'0 0.0
2018-Aug-04 11:30N 53°20' E 007°12'0 0.0
2018-Aug-04 10:57N 53°20' E 007°12'0 0.0
2018-Aug-04 10:30N 53°20' E 007°12'0 0.0
2018-Aug-04 10:00N 53°20' E 007°12'0 0.0
2018-Aug-04 09:30N 53°20' E 007°12'0 0.0
2018-Aug-04 09:00N 53°20' E 007°12'0 0.0
2018-Aug-04 08:30N 53°20' E 007°12'0 0.0
2018-Aug-04 08:00N 53°20' E 007°12'0 0.0
2018-Aug-04 07:30N 53°20' E 007°12'0 0.0
2018-Aug-04 06:57N 53°20' E 007°12'0 0.0
2018-Aug-04 06:30N 53°20' E 007°12'0 0.0
2018-Aug-04 06:00N 53°20' E 007°12'0 0.0
2018-Aug-04 05:30N 53°20' E 007°12'0 0.0
2018-Aug-04 05:00N 53°20' E 007°12'  

Dump ship's entire track history